createdAt,value
2022-08-10T00:09:19.158Z,65.65
2022-08-10T00:18:56.129Z,65.75
2022-08-10T00:28:33.046Z,66.52
2022-08-10T00:38:09.731Z,67.37
2022-08-10T00:47:46.827Z,66.89
2022-08-10T00:57:23.967Z,67.7
2022-08-10T01:07:00.555Z,68.19
2022-08-10T01:16:37.491Z,68.75
2022-08-10T01:35:51.411Z,69.12
2022-08-10T01:55:04.686Z,71.1
2022-08-10T02:04:41.322Z,70.99
2022-08-10T02:14:17.885Z,71.5
2022-08-10T02:23:56.903Z,71.37
2022-08-10T02:33:31.254Z,71.69
2022-08-10T02:45:16.646Z,72.5
2022-08-10T02:52:44.730Z,73.32
2022-08-10T03:02:21.258Z,74.16
2022-08-10T03:12:16.311Z,74.54
2022-08-10T03:21:34.551Z,74.33
2022-08-10T03:31:11.685Z,74.66
2022-08-10T03:40:48.528Z,75.99
2022-08-10T04:00:02.284Z,75.27
2022-08-10T04:09:43.633Z,75.29
2022-08-10T04:19:16.612Z,75.45
2022-08-10T04:28:53.827Z,74.91
2022-08-10T04:38:31.192Z,74.27
2022-08-10T04:48:08.815Z,73.04
2022-08-10T04:57:45.877Z,73.04
2022-08-10T05:07:23.490Z,71.99
2022-08-10T05:17:00.689Z,71.89
2022-08-10T05:26:42.457Z,70.74
2022-08-10T05:36:16.446Z,69.58
2022-08-10T05:46:16.573Z,68.25
2022-08-10T05:55:32.422Z,67.83
2022-08-10T06:05:09.907Z,65.92
2022-08-10T06:14:48.573Z,64.25
2022-08-10T06:24:29.204Z,62.47
2022-08-10T06:34:03.231Z,60.84
2022-08-10T06:43:41.403Z,59.85
2022-08-10T06:53:19.790Z,58.11
2022-08-10T07:02:58.086Z,57.27
2022-08-10T07:12:36.637Z,55.78
2022-08-10T07:23:00.728Z,53.89
2022-08-10T07:31:55.319Z,52.13
2022-08-10T07:51:09.372Z,50.87
2022-08-10T08:00:48.537Z,50.36
2022-08-10T08:10:25.820Z,49.26
2022-08-10T08:20:04.118Z,47.87
2022-08-10T08:29:42.358Z,46.74
2022-08-10T08:39:20.876Z,45.58
2022-08-10T08:48:59.633Z,43.6
2022-08-10T08:58:38.209Z,42.16
2022-08-10T09:08:16.535Z,42.22
2022-08-10T09:17:55.106Z,41.62
2022-08-10T09:27:35.333Z,40.6
2022-08-10T09:37:12.546Z,38.27
2022-08-10T09:47:00.128Z,35.57
2022-08-10T09:56:48.222Z,34.43
2022-08-10T10:06:30.786Z,32.26
2022-08-10T10:16:13.256Z,32.17
2022-08-10T10:26:00.830Z,29.63
2022-08-10T10:35:36.838Z,27.63
2022-08-10T10:45:18.158Z,29.11
2022-08-10T10:54:58.984Z,26.57
2022-08-10T11:04:38.610Z,25.24
2022-08-10T11:14:23.956Z,24.07
2022-08-10T11:24:43.088Z,23.48
2022-08-10T11:33:39.461Z,23.66
2022-08-10T11:43:03.600Z,24.63
2022-08-10T11:52:29.448Z,27.49
2022-08-10T12:02:20.063Z,23.39
2022-08-10T12:11:52.614Z,25.97
2022-08-10T12:21:32.299Z,24.51
2022-08-10T12:31:12.567Z,25.17
2022-08-10T12:41:01.479Z,23.82
2022-08-10T12:50:33.587Z,24.77
2022-08-10T13:00:17.183Z,22.66
2022-08-10T13:09:55.743Z,24.44
2022-08-10T13:19:20.993Z,25.14
2022-08-10T13:29:02.217Z,24.31
2022-08-10T13:39:03.603Z,20.85
2022-08-10T13:48:31.121Z,20.81
2022-08-10T13:58:04.282Z,22.25
2022-08-10T14:08:00.691Z,20.6
2022-08-10T14:17:45.488Z,19.03
2022-08-10T14:27:26.962Z,18.63
2022-08-10T14:37:02.567Z,18.2
2022-08-10T14:46:42.290Z,18.26
2022-08-10T14:56:05.511Z,20.99
2022-08-10T15:05:27.180Z,21.72
2022-08-10T15:15:00.638Z,22.82
2022-08-10T15:24:34.679Z,24.54
2022-08-10T15:34:14.058Z,22.03
2022-08-10T15:43:54.378Z,21.22
2022-08-10T15:53:46.979Z,21.37
2022-08-10T16:03:12.878Z,22.04
2022-08-10T16:12:59.370Z,23.03
2022-08-10T16:22:33.933Z,23.83
2022-08-10T16:31:55.730Z,25.62
2022-08-10T16:42:02.208Z,25.86
2022-08-10T16:51:06.669Z,28.63
2022-08-10T17:00:43.207Z,27.86
2022-08-10T17:10:20.271Z,28.03
2022-08-10T17:19:57.520Z,27.8
2022-08-10T17:29:54.197Z,28.75
2022-08-10T17:39:12.160Z,29.6
2022-08-10T17:48:48.654Z,29.14
2022-08-10T17:58:24.927Z,30.26
2022-08-10T18:08:01.072Z,30.71
2022-08-10T18:17:39.228Z,32.03
2022-08-10T18:27:13.641Z,32.83
2022-08-10T18:36:50.076Z,33.64
2022-08-10T18:46:26.706Z,34.79
2022-08-10T18:56:08.902Z,35.53
2022-08-10T19:05:39.509Z,38.28
2022-08-10T19:24:52.466Z,42.61
2022-08-10T19:34:29.270Z,43.56
2022-08-10T19:44:05.523Z,43.77
2022-08-10T20:03:18.955Z,46.13
2022-08-10T20:12:55.045Z,46.69
2022-08-10T20:32:08.283Z,48.03
2022-08-10T20:41:46.258Z,48.75
2022-08-10T20:51:22.069Z,49.65
2022-08-10T21:00:58.698Z,50.15
2022-08-10T21:10:35.801Z,50.94
2022-08-10T21:20:12.331Z,51.31
2022-08-10T21:29:54.000Z,51.73
2022-08-10T21:39:42.178Z,52.95
2022-08-10T21:58:39.600Z,54.35
2022-08-10T22:08:16.245Z,55.38
2022-08-10T22:18:00.552Z,56.65
2022-08-10T22:27:56.658Z,56.55
2022-08-10T22:37:07.063Z,56.94
2022-08-10T22:46:43.587Z,58.06
2022-08-10T22:56:20.611Z,58.34
2022-08-10T23:05:57.420Z,59.44
2022-08-10T23:15:34.102Z,60.88
2022-08-10T23:25:10.859Z,60.46
2022-08-10T23:36:05.423Z,61.25
2022-08-10T23:44:24.344Z,61.03
2022-08-10T23:54:00.805Z,62.21
